DLH2EL EDDF-EDDM
Flight info
| Callsign | DLH2EL |
|---|---|
| Flight time | 0h 34m |
| Altitude | 23000 |
| Route | CINDY8S/18 CINDY Z74 HAREM T104 ROKIL ROKIL1B |
| Aircraft | A320/M-SDE3FGHIRWY/LB1 |
Departure
| Time | 2026-05-07 16:11 |
|---|---|
| Airport | Frankfurt Main Airport (EDDF) |
Arrival
| Time | 2026-05-07 16:46 |
|---|---|
| Airport | Munich Airport (EDDM) |
| Time | Latitude | Longitude | Altitude | Speed | Heading |
|---|---|---|---|---|---|
| 2026-05-07 15:27 | 50.04392 | 8.56167 | 352 ft | 0 kts | 155° |
| 2026-05-07 15:29 | 50.04393 | 8.56167 | 352 ft | 0 kts | 155° |
| 2026-05-07 15:39 | 50.04392 | 8.56167 | 352 ft | 0 kts | 155° |
| 2026-05-07 15:40 | 50.04393 | 8.56167 | 352 ft | 0 kts | 155° |
| 2026-05-07 15:40 | 50.04392 | 8.56167 | 352 ft | 0 kts | 155° |
| 2026-05-07 15:41 | 50.04393 | 8.56167 | 352 ft | 0 kts | 155° |
| 2026-05-07 15:54 | 50.04392 | 8.56167 | 352 ft | 0 kts | 155° |
| 2026-05-07 15:54 | 50.04393 | 8.56167 | 352 ft | 0 kts | 155° |
| 2026-05-07 15:54 | 50.04392 | 8.56167 | 352 ft | 0 kts | 155° |
| 2026-05-07 15:55 | 50.04393 | 8.56167 | 352 ft | 0 kts | 155° |
| 2026-05-07 15:55 | 50.04392 | 8.56167 | 352 ft | 0 kts | 155° |
| 2026-05-07 15:55 | 50.04393 | 8.56167 | 352 ft | 0 kts | 155° |
| 2026-05-07 16:00 | 50.04394 | 8.56166 | 352 ft | 2 kts | 150° |
| 2026-05-07 16:00 | 50.04401 | 8.56160 | 361 ft | 0 kts | 181° |
| 2026-05-07 16:00 | 50.04401 | 8.56159 | 361 ft | 2 kts | 197° |
| 2026-05-07 16:01 | 50.04417 | 8.56167 | 353 ft | 2 kts | 191° |
| 2026-05-07 16:01 | 50.04433 | 8.56167 | 358 ft | 2 kts | 174° |
| 2026-05-07 16:01 | 50.04449 | 8.56164 | 357 ft | 2 kts | 209° |
| 2026-05-07 16:01 | 50.04459 | 8.56179 | 360 ft | 0 kts | 253° |
| 2026-05-07 16:02 | 50.04461 | 8.56191 | 362 ft | 0 kts | 253° |
| 2026-05-07 16:03 | 50.04460 | 8.56180 | 360 ft | 4 kts | 262° |
| 2026-05-07 16:03 | 50.04455 | 8.56147 | 360 ft | 3 kts | 252° |
| 2026-05-07 16:03 | 50.04448 | 8.56113 | 358 ft | 3 kts | 255° |
| 2026-05-07 16:03 | 50.04426 | 8.56050 | 358 ft | 8 kts | 220° |
| 2026-05-07 16:04 | 50.04368 | 8.56046 | 352 ft | 9 kts | 172° |
| 2026-05-07 16:04 | 50.04305 | 8.56064 | 349 ft | 10 kts | 180° |
| 2026-05-07 16:04 | 50.04257 | 8.55996 | 353 ft | 9 kts | 238° |
| 2026-05-07 16:04 | 50.04223 | 8.55875 | 357 ft | 16 kts | 248° |
| 2026-05-07 16:05 | 50.04187 | 8.55710 | 357 ft | 16 kts | 250° |
| 2026-05-07 16:05 | 50.04147 | 8.55559 | 361 ft | 15 kts | 249° |
| 2026-05-07 16:05 | 50.04109 | 8.55400 | 363 ft | 16 kts | 249° |
| 2026-05-07 16:05 | 50.04071 | 8.55239 | 362 ft | 16 kts | 249° |
| 2026-05-07 16:06 | 50.04032 | 8.55071 | 364 ft | 17 kts | 250° |
| 2026-05-07 16:06 | 50.03990 | 8.54896 | 362 ft | 18 kts | 250° |
| 2026-05-07 16:06 | 50.03942 | 8.54696 | 359 ft | 21 kts | 251° |
| 2026-05-07 16:06 | 50.03892 | 8.54475 | 364 ft | 22 kts | 250° |
| 2026-05-07 16:07 | 50.03819 | 8.54273 | 362 ft | 21 kts | 237° |
| 2026-05-07 16:07 | 50.03762 | 8.54068 | 363 ft | 21 kts | 249° |
| 2026-05-07 16:07 | 50.03709 | 8.53847 | 362 ft | 23 kts | 252° |
| 2026-05-07 16:07 | 50.03654 | 8.53608 | 360 ft | 24 kts | 254° |
| 2026-05-07 16:08 | 50.03609 | 8.53389 | 362 ft | 17 kts | 245° |
| 2026-05-07 16:08 | 50.03565 | 8.53240 | 363 ft | 16 kts | 250° |
| 2026-05-07 16:08 | 50.03509 | 8.52984 | 370 ft | 18 kts | 251° |
| 2026-05-07 16:08 | 50.03445 | 8.52757 | 379 ft | 26 kts | 248° |
| 2026-05-07 16:09 | 50.03394 | 8.52614 | 378 ft | 14 kts | 211° |
| 2026-05-07 16:09 | 50.03337 | 8.52594 | 376 ft | 0 kts | 182° |
| 2026-05-07 16:10 | 50.03328 | 8.52593 | 376 ft | 4 kts | 182° |
| 2026-05-07 16:10 | 50.03117 | 8.52594 | 370 ft | 68 kts | 180° |
| 2026-05-07 16:10 | 50.02414 | 8.52602 | 372 ft | 130 kts | 179° |
| 2026-05-07 16:11 | 50.01342 | 8.52609 | 367 ft | 175 kts | 179° |
| 2026-05-07 16:11 | 50.00104 | 8.52617 | 910 ft | 181 kts | 181° |
| 2026-05-07 16:11 | 49.98829 | 8.52637 | 1645 ft | 185 kts | 179° |
| 2026-05-07 16:11 | 49.97469 | 8.52739 | 2113 ft | 208 kts | 165° |
| 2026-05-07 16:12 | 49.96198 | 8.53962 | 2583 ft | 229 kts | 126° |
| 2026-05-07 16:12 | 49.95331 | 8.56177 | 3116 ft | 253 kts | 118° |
| 2026-05-07 16:12 | 49.94447 | 8.58655 | 3761 ft | 273 kts | 118° |
| 2026-05-07 16:12 | 49.93472 | 8.61417 | 3967 ft | 310 kts | 118° |
| 2026-05-07 16:13 | 49.92380 | 8.64508 | 4005 ft | 335 kts | 118° |
| 2026-05-07 16:13 | 49.91287 | 8.67576 | 3997 ft | 313 kts | 118° |
| 2026-05-07 16:13 | 49.90266 | 8.70423 | 3999 ft | 293 kts | 118° |
| 2026-05-07 16:13 | 49.89306 | 8.73085 | 3999 ft | 275 kts | 118° |
| 2026-05-07 16:14 | 49.88376 | 8.75656 | 4007 ft | 271 kts | 119° |
| 2026-05-07 16:14 | 49.87452 | 8.78202 | 4007 ft | 270 kts | 118° |
| 2026-05-07 16:14 | 49.86532 | 8.80742 | 4007 ft | 270 kts | 118° |
| 2026-05-07 16:14 | 49.85616 | 8.83279 | 4004 ft | 270 kts | 119° |
| 2026-05-07 16:15 | 49.84686 | 8.85843 | 4545 ft | 273 kts | 119° |
| 2026-05-07 16:15 | 49.83754 | 8.88410 | 5561 ft | 276 kts | 119° |
| 2026-05-07 16:15 | 49.82810 | 8.91016 | 6510 ft | 280 kts | 119° |
| 2026-05-07 16:15 | 49.82181 | 8.92762 | 7113 ft | 282 kts | 119° |
| 2026-05-07 16:16 | 49.80895 | 8.96322 | 8304 ft | 288 kts | 120° |
| 2026-05-07 16:16 | 49.79906 | 8.99033 | 9205 ft | 292 kts | 120° |
| 2026-05-07 16:16 | 49.78894 | 9.01788 | 10086 ft | 298 kts | 120° |
| 2026-05-07 16:16 | 49.77832 | 9.04680 | 10451 ft | 321 kts | 120° |
| 2026-05-07 16:17 | 49.76711 | 9.07811 | 10766 ft | 343 kts | 116° |
| 2026-05-07 16:17 | 49.75863 | 9.11325 | 11394 ft | 352 kts | 104° |
| 2026-05-07 16:17 | 49.75266 | 9.15030 | 12175 ft | 357 kts | 106° |
| 2026-05-07 16:17 | 49.74698 | 9.17434 | 12682 ft | 360 kts | 114° |
| 2026-05-07 16:18 | 49.73456 | 9.20816 | 13450 ft | 365 kts | 126° |
| 2026-05-07 16:18 | 49.71825 | 9.23840 | 14173 ft | 369 kts | 131° |
| 2026-05-07 16:18 | 49.70120 | 9.26823 | 14866 ft | 373 kts | 131° |
| 2026-05-07 16:18 | 49.68398 | 9.29849 | 15548 ft | 377 kts | 131° |
| 2026-05-07 16:19 | 49.66642 | 9.32946 | 16237 ft | 381 kts | 132° |
| 2026-05-07 16:19 | 49.64910 | 9.36003 | 16900 ft | 385 kts | 132° |
| 2026-05-07 16:19 | 49.63141 | 9.39125 | 17581 ft | 389 kts | 132° |
| 2026-05-07 16:19 | 49.61347 | 9.42289 | 18249 ft | 393 kts | 132° |
| 2026-05-07 16:20 | 49.59542 | 9.45471 | 18825 ft | 396 kts | 132° |
| 2026-05-07 16:20 | 49.57721 | 9.48676 | 19382 ft | 399 kts | 133° |
| 2026-05-07 16:20 | 49.55883 | 9.51905 | 19845 ft | 402 kts | 133° |
| 2026-05-07 16:20 | 49.54036 | 9.55151 | 19980 ft | 403 kts | 133° |
| 2026-05-07 16:21 | 49.52190 | 9.58389 | 20007 ft | 403 kts | 133° |
| 2026-05-07 16:21 | 49.50339 | 9.61629 | 20007 ft | 402 kts | 133° |
| 2026-05-07 16:21 | 49.48490 | 9.64856 | 20008 ft | 402 kts | 133° |
| 2026-05-07 16:21 | 49.46633 | 9.68084 | 20007 ft | 402 kts | 133° |
| 2026-05-07 16:22 | 49.44779 | 9.71305 | 20009 ft | 402 kts | 133° |
| 2026-05-07 16:22 | 49.42930 | 9.74519 | 20011 ft | 402 kts | 133° |
| 2026-05-07 16:22 | 49.41075 | 9.77743 | 20010 ft | 402 kts | 133° |
| 2026-05-07 16:22 | 49.39219 | 9.80969 | 20008 ft | 402 kts | 133° |
| 2026-05-07 16:23 | 49.37364 | 9.84195 | 20009 ft | 403 kts | 133° |
| 2026-05-07 16:23 | 49.35512 | 9.87403 | 20008 ft | 404 kts | 133° |
| 2026-05-07 16:23 | 49.33641 | 9.90632 | 20008 ft | 405 kts | 133° |
| 2026-05-07 16:23 | 49.31771 | 9.93855 | 20002 ft | 405 kts | 133° |
| 2026-05-07 16:24 | 49.29894 | 9.97083 | 20010 ft | 405 kts | 133° |
| 2026-05-07 16:24 | 49.28011 | 10.00316 | 20009 ft | 406 kts | 133° |
| 2026-05-07 16:24 | 49.26138 | 10.03527 | 20009 ft | 406 kts | 133° |
| 2026-05-07 16:24 | 49.24248 | 10.06763 | 20009 ft | 405 kts | 133° |
| 2026-05-07 16:25 | 49.22368 | 10.09980 | 20009 ft | 405 kts | 133° |
| 2026-05-07 16:25 | 49.20493 | 10.13186 | 20008 ft | 405 kts | 133° |
| 2026-05-07 16:25 | 49.18614 | 10.16399 | 20018 ft | 405 kts | 133° |
| 2026-05-07 16:25 | 49.16729 | 10.19618 | 20019 ft | 405 kts | 133° |
| 2026-05-07 16:26 | 49.14846 | 10.22834 | 20016 ft | 406 kts | 133° |
| 2026-05-07 16:26 | 49.12952 | 10.26035 | 20017 ft | 408 kts | 134° |
| 2026-05-07 16:26 | 49.11018 | 10.29203 | 20029 ft | 408 kts | 135° |
| 2026-05-07 16:26 | 49.09059 | 10.32343 | 20031 ft | 408 kts | 135° |
| 2026-05-07 16:27 | 49.07085 | 10.35474 | 20031 ft | 408 kts | 135° |
| 2026-05-07 16:27 | 49.05123 | 10.38587 | 20014 ft | 408 kts | 136° |
| 2026-05-07 16:27 | 49.03162 | 10.41706 | 20026 ft | 408 kts | 136° |
| 2026-05-07 16:27 | 49.01195 | 10.44840 | 20034 ft | 409 kts | 136° |
| 2026-05-07 16:28 | 48.99255 | 10.47936 | 20037 ft | 409 kts | 136° |
| 2026-05-07 16:28 | 48.97290 | 10.51074 | 20037 ft | 409 kts | 136° |
| 2026-05-07 16:28 | 48.95309 | 10.54231 | 20028 ft | 409 kts | 136° |
| 2026-05-07 16:28 | 48.93341 | 10.57367 | 20029 ft | 409 kts | 136° |
| 2026-05-07 16:29 | 48.91377 | 10.60496 | 20030 ft | 410 kts | 135° |
| 2026-05-07 16:29 | 48.89431 | 10.63592 | 20027 ft | 408 kts | 135° |
| 2026-05-07 16:29 | 48.87495 | 10.66668 | 19686 ft | 401 kts | 136° |
| 2026-05-07 16:29 | 48.85581 | 10.69704 | 19274 ft | 398 kts | 136° |
| 2026-05-07 16:30 | 48.83659 | 10.72748 | 18899 ft | 397 kts | 136° |
| 2026-05-07 16:30 | 48.81729 | 10.75798 | 18537 ft | 394 kts | 136° |
| 2026-05-07 16:30 | 48.79858 | 10.78752 | 18158 ft | 392 kts | 136° |
| 2026-05-07 16:30 | 48.77966 | 10.81723 | 17799 ft | 389 kts | 136° |
| 2026-05-07 16:31 | 48.76119 | 10.84620 | 17439 ft | 373 kts | 136° |
| 2026-05-07 16:31 | 48.74354 | 10.87390 | 17084 ft | 357 kts | 136° |
| 2026-05-07 16:31 | 48.72650 | 10.90058 | 16743 ft | 350 kts | 136° |
| 2026-05-07 16:31 | 48.70955 | 10.92704 | 16406 ft | 349 kts | 136° |
| 2026-05-07 16:32 | 48.69206 | 10.95426 | 16082 ft | 372 kts | 136° |
| 2026-05-07 16:32 | 48.67359 | 10.98293 | 15703 ft | 386 kts | 136° |
| 2026-05-07 16:32 | 48.65487 | 11.01206 | 15324 ft | 387 kts | 136° |
| 2026-05-07 16:32 | 48.63623 | 11.04113 | 14952 ft | 385 kts | 136° |
| 2026-05-07 16:33 | 48.61760 | 11.07009 | 14581 ft | 383 kts | 136° |
| 2026-05-07 16:33 | 48.59913 | 11.09879 | 14222 ft | 380 kts | 136° |
| 2026-05-07 16:33 | 48.58035 | 11.12684 | 13868 ft | 376 kts | 142° |
| 2026-05-07 16:33 | 48.55941 | 11.14995 | 13470 ft | 371 kts | 149° |
| 2026-05-07 16:34 | 48.53835 | 11.17240 | 13058 ft | 371 kts | 142° |
| 2026-05-07 16:34 | 48.52077 | 11.20057 | 12654 ft | 365 kts | 128° |
| 2026-05-07 16:34 | 48.50863 | 11.23304 | 12271 ft | 348 kts | 114° |
| 2026-05-07 16:34 | 48.50178 | 11.26706 | 11917 ft | 331 kts | 104° |
| 2026-05-07 16:35 | 48.49645 | 11.30006 | 11611 ft | 318 kts | 105° |
| 2026-05-07 16:35 | 48.49112 | 11.33224 | 11308 ft | 313 kts | 105° |
| 2026-05-07 16:35 | 48.48598 | 11.36289 | 11018 ft | 299 kts | 105° |
| 2026-05-07 16:35 | 48.48092 | 11.39311 | 10709 ft | 289 kts | 105° |
| 2026-05-07 16:36 | 48.47595 | 11.42280 | 10418 ft | 294 kts | 105° |
| 2026-05-07 16:36 | 48.47095 | 11.45276 | 10124 ft | 295 kts | 105° |
| 2026-05-07 16:36 | 48.46595 | 11.48268 | 9828 ft | 294 kts | 105° |
| 2026-05-07 16:36 | 48.46104 | 11.51203 | 9512 ft | 292 kts | 105° |
| 2026-05-07 16:37 | 48.45610 | 11.54158 | 9199 ft | 291 kts | 105° |
| 2026-05-07 16:37 | 48.45119 | 11.57088 | 8885 ft | 289 kts | 105° |
| 2026-05-07 16:37 | 48.44635 | 11.59989 | 8564 ft | 278 kts | 105° |
| 2026-05-07 16:37 | 48.44173 | 11.62747 | 8255 ft | 265 kts | 105° |
| 2026-05-07 16:38 | 48.43730 | 11.65381 | 7948 ft | 254 kts | 105° |
| 2026-05-07 16:38 | 48.43307 | 11.67886 | 7738 ft | 241 kts | 105° |
| 2026-05-07 16:38 | 48.42900 | 11.70277 | 7543 ft | 230 kts | 105° |
| 2026-05-07 16:38 | 48.42516 | 11.72532 | 7359 ft | 214 kts | 105° |
| 2026-05-07 16:39 | 48.42157 | 11.74647 | 7148 ft | 203 kts | 105° |
| 2026-05-07 16:39 | 48.41813 | 11.76665 | 6949 ft | 194 kts | 105° |
| 2026-05-07 16:39 | 48.41485 | 11.78595 | 6757 ft | 186 kts | 104° |
| 2026-05-07 16:39 | 48.41171 | 11.80449 | 6552 ft | 181 kts | 104° |
| 2026-05-07 16:40 | 48.40861 | 11.82280 | 6365 ft | 180 kts | 104° |
| 2026-05-07 16:40 | 48.40551 | 11.84099 | 6157 ft | 179 kts | 104° |
| 2026-05-07 16:40 | 48.40242 | 11.85908 | 5950 ft | 177 kts | 105° |
| 2026-05-07 16:40 | 48.40011 | 11.87720 | 5693 ft | 176 kts | 96° |
| 2026-05-07 16:41 | 48.39940 | 11.89554 | 5436 ft | 175 kts | 90° |
| 2026-05-07 16:41 | 48.39921 | 11.91379 | 5181 ft | 174 kts | 88° |
| 2026-05-07 16:41 | 48.39964 | 11.93198 | 4934 ft | 173 kts | 85° |
| 2026-05-07 16:41 | 48.40033 | 11.94987 | 4679 ft | 170 kts | 85° |
| 2026-05-07 16:42 | 48.39992 | 11.96769 | 4400 ft | 172 kts | 104° |
| 2026-05-07 16:42 | 48.39311 | 11.98181 | 4140 ft | 169 kts | 152° |
| 2026-05-07 16:42 | 48.38210 | 11.98648 | 3894 ft | 164 kts | 182° |
| 2026-05-07 16:42 | 48.37117 | 11.98351 | 3645 ft | 157 kts | 207° |
| 2026-05-07 16:43 | 48.36241 | 11.97425 | 3397 ft | 154 kts | 231° |
| 2026-05-07 16:43 | 48.35707 | 11.96060 | 3144 ft | 150 kts | 255° |
| 2026-05-07 16:43 | 48.35541 | 11.94544 | 2892 ft | 146 kts | 267° |
| 2026-05-07 16:43 | 48.35428 | 11.93022 | 2636 ft | 147 kts | 265° |
| 2026-05-07 16:44 | 48.35314 | 11.91500 | 2547 ft | 146 kts | 267° |
| 2026-05-07 16:44 | 48.35199 | 11.89964 | 2507 ft | 150 kts | 265° |
| 2026-05-07 16:44 | 48.35078 | 11.88409 | 2414 ft | 151 kts | 266° |
| 2026-05-07 16:44 | 48.34930 | 11.86840 | 2210 ft | 151 kts | 266° |
| 2026-05-07 16:45 | 48.34819 | 11.85265 | 2062 ft | 153 kts | 267° |
| 2026-05-07 16:45 | 48.34697 | 11.83668 | 1923 ft | 156 kts | 266° |
| 2026-05-07 16:45 | 48.34577 | 11.82036 | 1771 ft | 157 kts | 266° |
| 2026-05-07 16:45 | 48.34470 | 11.80410 | 1523 ft | 155 kts | 267° |
| 2026-05-07 16:46 | 48.34387 | 11.79128 | 1463 ft | 83 kts | 262° |
| 2026-05-07 16:46 | 48.34340 | 11.78632 | 1467 ft | 25 kts | 265° |
| 2026-05-07 16:46 | 48.34302 | 11.78253 | 1470 ft | 32 kts | 276° |
| 2026-05-07 16:46 | 48.34332 | 11.77958 | 1469 ft | 29 kts | 289° |
| 2026-05-07 16:47 | 48.34404 | 11.77727 | 1460 ft | 14 kts | 329° |
| 2026-05-07 16:47 | 48.34436 | 11.77769 | 1457 ft | 5 kts | 62° |
| 2026-05-07 16:47 | 48.34485 | 11.77860 | 1463 ft | 20 kts | 50° |
| 2026-05-07 16:47 | 48.34573 | 11.78035 | 1461 ft | 21 kts | 53° |
| 2026-05-07 16:48 | 48.34682 | 11.78111 | 1464 ft | 12 kts | 66° |
| 2026-05-07 16:48 | 48.34682 | 11.78206 | 1458 ft | 8 kts | 86° |
| 2026-05-07 16:48 | 48.34697 | 11.78378 | 1463 ft | 19 kts | 87° |
| 2026-05-07 16:48 | 48.34711 | 11.78584 | 1458 ft | 21 kts | 82° |
| 2026-05-07 16:49 | 48.34727 | 11.78795 | 1464 ft | 20 kts | 97° |
| 2026-05-07 16:49 | 48.34737 | 11.78997 | 1467 ft | 18 kts | 72° |
| 2026-05-07 16:49 | 48.34756 | 11.79143 | 1467 ft | 13 kts | 82° |
| 2026-05-07 16:49 | 48.34767 | 11.79273 | 1467 ft | 12 kts | 84° |
| 2026-05-07 16:50 | 48.34774 | 11.79386 | 1463 ft | 10 kts | 81° |
| 2026-05-07 16:50 | 48.34781 | 11.79484 | 1466 ft | 9 kts | 82° |
| 2026-05-07 16:50 | 48.34789 | 11.79567 | 1467 ft | 10 kts | 82° |
| 2026-05-07 16:50 | 48.34803 | 11.79671 | 1458 ft | 9 kts | 61° |
| 2026-05-07 16:51 | 48.34851 | 11.79706 | 1464 ft | 8 kts | 358° |
| 2026-05-07 16:51 | 48.34909 | 11.79692 | 1459 ft | 9 kts | 353° |
| 2026-05-07 16:51 | 48.34928 | 11.79689 | 1462 ft | 5 kts | 353° |
| 2026-05-07 16:51 | 48.34977 | 11.79664 | 1463 ft | 8 kts | 320° |
| 2026-05-07 16:52 | 48.35025 | 11.79605 | 1462 ft | 10 kts | 339° |
| 2026-05-07 16:52 | 48.35095 | 11.79586 | 1459 ft | 11 kts | 353° |
| 2026-05-07 16:52 | 48.35176 | 11.79571 | 1464 ft | 13 kts | 352° |
| 2026-05-07 16:52 | 48.35251 | 11.79555 | 1462 ft | 0 kts | 351° |
| 2026-05-07 16:53 | 48.35307 | 11.79553 | 1467 ft | 29 kts | 359° |
| 2026-05-07 16:53 | 48.35477 | 11.79499 | 1462 ft | 14 kts | 305° |
| 2026-05-07 16:53 | 48.35559 | 11.79441 | 1464 ft | 14 kts | 343° |
| 2026-05-07 16:53 | 48.35625 | 11.79417 | 1467 ft | 6 kts | 329° |
| 2026-05-07 16:54 | 48.35645 | 11.79362 | 1462 ft | 6 kts | 275° |
| 2026-05-07 16:54 | 48.35642 | 11.79307 | 1465 ft | 4 kts | 262° |
| 2026-05-07 16:54 | 48.35640 | 11.79287 | 1467 ft | 0 kts | 262° |